sensor_id;sensor_type;location;lat;lon;timestamp;temperature;humidity
33815;DHT22;20121;51.910;8.406;2022-07-23T00:01:22;15.60;99.90
33815;DHT22;20121;51.910;8.406;2022-07-23T00:03:48;15.60;99.90
33815;DHT22;20121;51.910;8.406;2022-07-23T00:06:14;15.60;99.90
33815;DHT22;20121;51.910;8.406;2022-07-23T00:08:39;15.60;99.90
33815;DHT22;20121;51.910;8.406;2022-07-23T00:11:05;15.60;99.90
33815;DHT22;20121;51.910;8.406;2022-07-23T00:13:30;15.60;99.90
33815;DHT22;20121;51.910;8.406;2022-07-23T00:15:56;15.60;99.90
33815;DHT22;20121;51.910;8.406;2022-07-23T00:18:22;15.80;99.90
33815;DHT22;20121;51.910;8.406;2022-07-23T00:20:48;15.50;99.90
33815;DHT22;20121;51.910;8.406;2022-07-23T00:23:14;15.50;99.90
33815;DHT22;20121;51.910;8.406;2022-07-23T00:25:40;15.60;99.90
33815;DHT22;20121;51.910;8.406;2022-07-23T00:28:06;15.60;99.90
33815;DHT22;20121;51.910;8.406;2022-07-23T00:30:32;15.60;99.90
33815;DHT22;20121;51.910;8.406;2022-07-23T00:33:03;15.60;99.90
33815;DHT22;20121;51.910;8.406;2022-07-23T00:35:31;15.70;99.90
33815;DHT22;20121;51.910;8.406;2022-07-23T00:37:58;15.70;99.90
33815;DHT22;20121;51.910;8.406;2022-07-23T00:40:25;15.70;99.90
33815;DHT22;20121;51.910;8.406;2022-07-23T00:42:50;15.70;99.90
33815;DHT22;20121;51.910;8.406;2022-07-23T00:45:16;15.70;99.90
33815;DHT22;20121;51.910;8.406;2022-07-23T00:47:42;15.80;99.90
33815;DHT22;20121;51.910;8.406;2022-07-23T00:50:08;16.50;99.90
33815;DHT22;20121;51.910;8.406;2022-07-23T00:52:36;15.80;99.90
33815;DHT22;20121;51.910;8.406;2022-07-23T00:55:03;15.80;99.90
33815;DHT22;20121;51.910;8.406;2022-07-23T00:57:29;15.90;99.90
33815;DHT22;20121;51.910;8.406;2022-07-23T00:59:55;15.80;99.90
33815;DHT22;20121;51.910;8.406;2022-07-23T01:02:21;15.80;99.90
33815;DHT22;20121;51.910;8.406;2022-07-23T01:04:47;15.80;99.90
33815;DHT22;20121;51.910;8.406;2022-07-23T01:07:13;15.80;99.90
33815;DHT22;20121;51.910;8.406;2022-07-23T01:09:38;15.80;99.90
33815;DHT22;20121;51.910;8.406;2022-07-23T01:12:05;16.10;99.90
33815;DHT22;20121;51.910;8.406;2022-07-23T01:14:31;15.90;99.90
33815;DHT22;20121;51.910;8.406;2022-07-23T01:16:57;15.80;99.90
33815;DHT22;20121;51.910;8.406;2022-07-23T01:19:23;15.90;99.90
33815;DHT22;20121;51.910;8.406;2022-07-23T01:21:50;15.80;99.90
33815;DHT22;20121;51.910;8.406;2022-07-23T01:24:16;15.80;99.90
33815;DHT22;20121;51.910;8.406;2022-07-23T01:26:45;15.80;99.90
33815;DHT22;20121;51.910;8.406;2022-07-23T01:29:11;15.80;99.90
33815;DHT22;20121;51.910;8.406;2022-07-23T01:31:37;15.80;99.90
33815;DHT22;20121;51.910;8.406;2022-07-23T01:34:03;15.70;99.90
33815;DHT22;20121;51.910;8.406;2022-07-23T01:36:30;15.50;99.90
33815;DHT22;20121;51.910;8.406;2022-07-23T01:38:55;15.40;99.90
33815;DHT22;20121;51.910;8.406;2022-07-23T01:41:21;15.40;99.90
33815;DHT22;20121;51.910;8.406;2022-07-23T01:43:47;15.40;99.90
33815;DHT22;20121;51.910;8.406;2022-07-23T01:46:13;15.40;99.90
33815;DHT22;20121;51.910;8.406;2022-07-23T01:48:39;15.40;99.90
33815;DHT22;20121;51.910;8.406;2022-07-23T01:51:05;15.40;99.90
33815;DHT22;20121;51.910;8.406;2022-07-23T01:53:30;15.40;99.90
33815;DHT22;20121;51.910;8.406;2022-07-23T01:55:57;15.40;99.90
33815;DHT22;20121;51.910;8.406;2022-07-23T01:58:24;15.50;99.90
33815;DHT22;20121;51.910;8.406;2022-07-23T02:00:49;15.40;99.90
33815;DHT22;20121;51.910;8.406;2022-07-23T02:03:15;15.30;99.90
33815;DHT22;20121;51.910;8.406;2022-07-23T02:05:41;15.40;99.90
33815;DHT22;20121;51.910;8.406;2022-07-23T02:08:06;15.40;99.90
33815;DHT22;20121;51.910;8.406;2022-07-23T02:10:32;15.30;99.90
33815;DHT22;20121;51.910;8.406;2022-07-23T02:12:58;15.40;99.90
33815;DHT22;20121;51.910;8.406;2022-07-23T02:15:23;15.40;99.90
33815;DHT22;20121;51.910;8.406;2022-07-23T02:17:49;15.40;99.90
33815;DHT22;20121;51.910;8.406;2022-07-23T02:20:15;15.40;99.90
33815;DHT22;20121;51.910;8.406;2022-07-23T02:22:41;15.40;99.90
33815;DHT22;20121;51.910;8.406;2022-07-23T02:25:07;15.30;99.90
33815;DHT22;20121;51.910;8.406;2022-07-23T02:27:34;15.30;99.90
33815;DHT22;20121;51.910;8.406;2022-07-23T02:30:01;15.30;99.90
33815;DHT22;20121;51.910;8.406;2022-07-23T02:32:27;15.30;99.90
33815;DHT22;20121;51.910;8.406;2022-07-23T02:34:52;15.30;99.90
33815;DHT22;20121;51.910;8.406;2022-07-23T02:37:18;15.30;99.90
33815;DHT22;20121;51.910;8.406;2022-07-23T02:39:44;15.30;99.90
33815;DHT22;20121;51.910;8.406;2022-07-23T02:42:09;15.30;99.90
33815;DHT22;20121;51.910;8.406;2022-07-23T02:44:35;15.30;99.90
33815;DHT22;20121;51.910;8.406;2022-07-23T02:47:01;15.30;99.90
33815;DHT22;20121;51.910;8.406;2022-07-23T02:49:27;15.20;99.90
33815;DHT22;20121;51.910;8.406;2022-07-23T02:51:53;15.20;99.90
33815;DHT22;20121;51.910;8.406;2022-07-23T02:54:18;15.20;99.90
33815;DHT22;20121;51.910;8.406;2022-07-23T02:56:44;15.10;99.90
33815;DHT22;20121;51.910;8.406;2022-07-23T02:59:10;15.10;99.90
33815;DHT22;20121;51.910;8.406;2022-07-23T03:01:36;15.10;99.90
33815;DHT22;20121;51.910;8.406;2022-07-23T03:04:01;15.10;99.90
33815;DHT22;20121;51.910;8.406;2022-07-23T03:06:27;15.10;99.90
33815;DHT22;20121;51.910;8.406;2022-07-23T03:08:53;15.00;99.90
33815;DHT22;20121;51.910;8.406;2022-07-23T03:11:18;15.00;99.90
33815;DHT22;20121;51.910;8.406;2022-07-23T03:13:44;14.90;99.90
33815;DHT22;20121;51.910;8.406;2022-07-23T03:16:10;14.90;99.90
33815;DHT22;20121;51.910;8.406;2022-07-23T03:18:35;14.90;99.90
33815;DHT22;20121;51.910;8.406;2022-07-23T03:21:01;14.90;99.90
33815;DHT22;20121;51.910;8.406;2022-07-23T03:23:27;14.90;99.90
33815;DHT22;20121;51.910;8.406;2022-07-23T03:25:53;14.90;99.90
33815;DHT22;20121;51.910;8.406;2022-07-23T03:28:18;14.60;99.90
33815;DHT22;20121;51.910;8.406;2022-07-23T03:30:47;14.80;99.90
33815;DHT22;20121;51.910;8.406;2022-07-23T03:33:18;14.80;99.90
33815;DHT22;20121;51.910;8.406;2022-07-23T03:35:45;14.80;99.90
33815;DHT22;20121;51.910;8.406;2022-07-23T03:38:11;15.00;99.90
33815;DHT22;20121;51.910;8.406;2022-07-23T03:40:37;14.80;99.90
33815;DHT22;20121;51.910;8.406;2022-07-23T03:43:03;14.80;99.90
33815;DHT22;20121;51.910;8.406;2022-07-23T03:45:29;14.80;99.90
33815;DHT22;20121;51.910;8.406;2022-07-23T03:47:55;14.70;99.90
33815;DHT22;20121;51.910;8.406;2022-07-23T03:50:21;14.70;99.90
33815;DHT22;20121;51.910;8.406;2022-07-23T03:52:47;14.70;99.90
33815;DHT22;20121;51.910;8.406;2022-07-23T03:55:13;14.70;99.90
33815;DHT22;20121;51.910;8.406;2022-07-23T03:57:39;14.70;99.90
33815;DHT22;20121;51.910;8.406;2022-07-23T04:00:06;14.60;99.90
33815;DHT22;20121;51.910;8.406;2022-07-23T04:02:33;14.60;99.90
33815;DHT22;20121;51.910;8.406;2022-07-23T04:04:59;14.50;99.90
33815;DHT22;20121;51.910;8.406;2022-07-23T04:07:26;14.50;99.90
33815;DHT22;20121;51.910;8.406;2022-07-23T04:09:52;14.40;99.90
33815;DHT22;20121;51.910;8.406;2022-07-23T04:12:17;14.40;99.90
33815;DHT22;20121;51.910;8.406;2022-07-23T04:14:43;14.40;99.90
33815;DHT22;20121;51.910;8.406;2022-07-23T04:17:09;14.40;99.90
33815;DHT22;20121;51.910;8.406;2022-07-23T04:19:35;14.30;99.90
33815;DHT22;20121;51.910;8.406;2022-07-23T04:22:05;14.30;99.90
33815;DHT22;20121;51.910;8.406;2022-07-23T04:24:31;14.30;99.90
33815;DHT22;20121;51.910;8.406;2022-07-23T04:26:57;14.30;99.90
33815;DHT22;20121;51.910;8.406;2022-07-23T04:29:23;14.30;99.90
33815;DHT22;20121;51.910;8.406;2022-07-23T04:31:49;14.30;99.90
33815;DHT22;20121;51.910;8.406;2022-07-23T04:34:14;14.30;99.90
33815;DHT22;20121;51.910;8.406;2022-07-23T04:36:40;14.30;99.90
33815;DHT22;20121;51.910;8.406;2022-07-23T04:41:32;14.30;99.90
33815;DHT22;20121;51.910;8.406;2022-07-23T04:43:57;14.40;99.90
33815;DHT22;20121;51.910;8.406;2022-07-23T04:46:23;14.40;99.90
33815;DHT22;20121;51.910;8.406;2022-07-23T04:48:48;14.40;99.90
33815;DHT22;20121;51.910;8.406;2022-07-23T04:51:14;14.30;99.90
33815;DHT22;20121;51.910;8.406;2022-07-23T04:53:40;14.40;99.90
33815;DHT22;20121;51.910;8.406;2022-07-23T04:56:06;14.40;99.90
33815;DHT22;20121;51.910;8.406;2022-07-23T04:58:31;14.50;99.90
33815;DHT22;20121;51.910;8.406;2022-07-23T05:00:57;14.50;99.90
33815;DHT22;20121;51.910;8.406;2022-07-23T05:03:23;14.60;99.90
33815;DHT22;20121;51.910;8.406;2022-07-23T05:05:49;14.70;99.90
33815;DHT22;20121;51.910;8.406;2022-07-23T05:08:15;14.80;99.90
33815;DHT22;20121;51.910;8.406;2022-07-23T05:10:41;14.90;99.90
33815;DHT22;20121;51.910;8.406;2022-07-23T05:13:07;15.00;99.90
33815;DHT22;20121;51.910;8.406;2022-07-23T05:15:32;15.20;99.90
33815;DHT22;20121;51.910;8.406;2022-07-23T05:17:58;15.40;99.90
33815;DHT22;20121;51.910;8.406;2022-07-23T05:20:24;15.70;99.90
33815;DHT22;20121;51.910;8.406;2022-07-23T05:22:49;15.90;99.90
33815;DHT22;20121;51.910;8.406;2022-07-23T05:25:15;16.10;99.90
33815;DHT22;20121;51.910;8.406;2022-07-23T05:27:41;16.20;99.90
33815;DHT22;20121;51.910;8.406;2022-07-23T05:30:07;16.50;99.90
33815;DHT22;20121;51.910;8.406;2022-07-23T05:32:33;16.70;99.90
33815;DHT22;20121;51.910;8.406;2022-07-23T05:34:59;16.90;99.90
33815;DHT22;20121;51.910;8.406;2022-07-23T05:37:25;17.10;99.90
33815;DHT22;20121;51.910;8.406;2022-07-23T05:39:51;17.00;99.90
33815;DHT22;20121;51.910;8.406;2022-07-23T05:42:16;17.10;99.90
33815;DHT22;20121;51.910;8.406;2022-07-23T05:44:42;17.00;99.90
33815;DHT22;20121;51.910;8.406;2022-07-23T05:47:08;17.30;99.90
33815;DHT22;20121;51.910;8.406;2022-07-23T05:49:33;17.40;99.90
33815;DHT22;20121;51.910;8.406;2022-07-23T05:52:03;17.40;99.90
33815;DHT22;20121;51.910;8.406;2022-07-23T05:54:29;17.50;99.90
33815;DHT22;20121;51.910;8.406;2022-07-23T05:56:55;17.60;99.90
33815;DHT22;20121;51.910;8.406;2022-07-23T05:59:20;17.70;99.90
33815;DHT22;20121;51.910;8.406;2022-07-23T06:01:46;17.80;99.90
33815;DHT22;20121;51.910;8.406;2022-07-23T06:04:12;18.10;99.90
33815;DHT22;20121;51.910;8.406;2022-07-23T06:06:37;18.10;99.90
33815;DHT22;20121;51.910;8.406;2022-07-23T06:09:03;18.30;99.90
33815;DHT22;20121;51.910;8.406;2022-07-23T06:11:28;18.40;99.90
33815;DHT22;20121;51.910;8.406;2022-07-23T06:13:55;18.40;99.90
33815;DHT22;20121;51.910;8.406;2022-07-23T06:16:20;18.40;99.90
33815;DHT22;20121;51.910;8.406;2022-07-23T06:18:46;18.60;99.90
33815;DHT22;20121;51.910;8.406;2022-07-23T06:21:11;18.60;99.90
33815;DHT22;20121;51.910;8.406;2022-07-23T06:23:37;18.60;99.90
33815;DHT22;20121;51.910;8.406;2022-07-23T06:26:03;18.50;99.90
33815;DHT22;20121;51.910;8.406;2022-07-23T06:28:28;19.20;99.90
33815;DHT22;20121;51.910;8.406;2022-07-23T06:30:54;19.30;99.90
33815;DHT22;20121;51.910;8.406;2022-07-23T06:33:20;19.50;99.90
33815;DHT22;20121;51.910;8.406;2022-07-23T06:35:45;19.60;99.90
33815;DHT22;20121;51.910;8.406;2022-07-23T06:38:11;19.60;99.90
33815;DHT22;20121;51.910;8.406;2022-07-23T06:40:37;20.00;99.90
33815;DHT22;20121;51.910;8.406;2022-07-23T06:43:02;19.80;99.90
33815;DHT22;20121;51.910;8.406;2022-07-23T06:45:28;19.60;99.90
33815;DHT22;20121;51.910;8.406;2022-07-23T06:47:54;20.00;99.90
33815;DHT22;20121;51.910;8.406;2022-07-23T06:50:19;19.80;99.90
33815;DHT22;20121;51.910;8.406;2022-07-23T06:52:45;19.80;99.90
33815;DHT22;20121;51.910;8.406;2022-07-23T06:55:11;19.90;99.90
33815;DHT22;20121;51.910;8.406;2022-07-23T06:57:36;20.00;99.90
33815;DHT22;20121;51.910;8.406;2022-07-23T07:00:03;20.10;99.90
33815;DHT22;20121;51.910;8.406;2022-07-23T07:02:29;19.90;99.90
33815;DHT22;20121;51.910;8.406;2022-07-23T07:04:55;20.00;99.90
33815;DHT22;20121;51.910;8.406;2022-07-23T07:07:21;19.80;99.90
33815;DHT22;20121;51.910;8.406;2022-07-23T07:09:47;19.90;99.90
33815;DHT22;20121;51.910;8.406;2022-07-23T07:12:12;20.00;99.90
33815;DHT22;20121;51.910;8.406;2022-07-23T07:14:38;20.20;99.90
33815;DHT22;20121;51.910;8.406;2022-07-23T07:17:04;20.20;99.90
33815;DHT22;20121;51.910;8.406;2022-07-23T07:19:30;20.10;99.90
33815;DHT22;20121;51.910;8.406;2022-07-23T07:21:55;19.90;99.90
33815;DHT22;20121;51.910;8.406;2022-07-23T07:24:21;19.70;99.90
33815;DHT22;20121;51.910;8.406;2022-07-23T07:26:47;19.70;99.90
33815;DHT22;20121;51.910;8.406;2022-07-23T07:29:12;19.50;99.90
33815;DHT22;20121;51.910;8.406;2022-07-23T07:31:38;19.50;99.90
33815;DHT22;20121;51.910;8.406;2022-07-23T07:34:04;19.90;99.90
33815;DHT22;20121;51.910;8.406;2022-07-23T07:36:29;20.30;99.90
33815;DHT22;20121;51.910;8.406;2022-07-23T07:38:55;20.50;99.90
33815;DHT22;20121;51.910;8.406;2022-07-23T07:41:21;20.40;99.90
33815;DHT22;20121;51.910;8.406;2022-07-23T07:43:50;20.60;99.90
33815;DHT22;20121;51.910;8.406;2022-07-23T07:46:16;20.40;99.90
33815;DHT22;20121;51.910;8.406;2022-07-23T07:48:41;20.10;99.90
33815;DHT22;20121;51.910;8.406;2022-07-23T07:51:07;20.10;99.90
33815;DHT22;20121;51.910;8.406;2022-07-23T07:53:33;20.10;99.90
33815;DHT22;20121;51.910;8.406;2022-07-23T07:55:59;20.40;99.90
33815;DHT22;20121;51.910;8.406;2022-07-23T07:58:24;20.80;99.90
33815;DHT22;20121;51.910;8.406;2022-07-23T08:00:50;20.50;99.90
33815;DHT22;20121;51.910;8.406;2022-07-23T08:03:16;20.80;99.90
33815;DHT22;20121;51.910;8.406;2022-07-23T08:05:42;20.70;99.90
33815;DHT22;20121;51.910;8.406;2022-07-23T08:08:08;20.60;99.90
33815;DHT22;20121;51.910;8.406;2022-07-23T08:10:35;20.90;99.90
33815;DHT22;20121;51.910;8.406;2022-07-23T08:13:00;20.90;99.90
33815;DHT22;20121;51.910;8.406;2022-07-23T08:15:28;21.00;99.90
33815;DHT22;20121;51.910;8.406;2022-07-23T08:17:54;21.00;99.90
33815;DHT22;20121;51.910;8.406;2022-07-23T08:20:21;20.90;99.90
33815;DHT22;20121;51.910;8.406;2022-07-23T08:25:13;20.60;99.90
33815;DHT22;20121;51.910;8.406;2022-07-23T08:27:39;21.00;99.90
33815;DHT22;20121;51.910;8.406;2022-07-23T08:30:05;21.30;99.90
33815;DHT22;20121;51.910;8.406;2022-07-23T08:32:31;21.30;99.90
33815;DHT22;20121;51.910;8.406;2022-07-23T08:34:56;21.40;99.90
33815;DHT22;20121;51.910;8.406;2022-07-23T08:37:22;21.50;99.90
33815;DHT22;20121;51.910;8.406;2022-07-23T08:39:47;21.60;99.90
33815;DHT22;20121;51.910;8.406;2022-07-23T08:42:16;21.70;99.90
33815;DHT22;20121;51.910;8.406;2022-07-23T08:44:45;21.90;99.90
33815;DHT22;20121;51.910;8.406;2022-07-23T08:47:12;22.10;99.90
33815;DHT22;20121;51.910;8.406;2022-07-23T08:49:38;22.30;99.90
33815;DHT22;20121;51.910;8.406;2022-07-23T08:52:05;22.50;99.90
33815;DHT22;20121;51.910;8.406;2022-07-23T08:54:31;22.50;99.90
33815;DHT22;20121;51.910;8.406;2022-07-23T08:56:57;22.10;99.90
33815;DHT22;20121;51.910;8.406;2022-07-23T08:59:23;21.10;99.90
33815;DHT22;20121;51.910;8.406;2022-07-23T09:01:48;21.40;99.90
33815;DHT22;20121;51.910;8.406;2022-07-23T09:04:14;21.50;99.90
33815;DHT22;20121;51.910;8.406;2022-07-23T09:06:40;21.90;99.90
33815;DHT22;20121;51.910;8.406;2022-07-23T09:09:18;22.40;99.90
33815;DHT22;20121;51.910;8.406;2022-07-23T09:11:48;22.60;99.90
33815;DHT22;20121;51.910;8.406;2022-07-23T09:17:10;22.50;99.90
33815;DHT22;20121;51.910;8.406;2022-07-23T09:19:35;22.50;99.90
33815;DHT22;20121;51.910;8.406;2022-07-23T09:22:36;22.20;99.80
33815;DHT22;20121;51.910;8.406;2022-07-23T09:25:15;21.90;99.90
33815;DHT22;20121;51.910;8.406;2022-07-23T09:30:30;21.50;99.90
33815;DHT22;20121;51.910;8.406;2022-07-23T09:33:12;21.70;99.90
33815;DHT22;20121;51.910;8.406;2022-07-23T09:35:55;22.10;99.90
33815;DHT22;20121;51.910;8.406;2022-07-23T09:38:23;22.60;99.90
33815;DHT22;20121;51.910;8.406;2022-07-23T09:41:08;22.30;99.90
33815;DHT22;20121;51.910;8.406;2022-07-23T09:43:34;22.40;99.90
33815;DHT22;20121;51.910;8.406;2022-07-23T09:46:20;22.00;99.90
33815;DHT22;20121;51.910;8.406;2022-07-23T09:48:47;22.10;99.90
33815;DHT22;20121;51.910;8.406;2022-07-23T09:51:13;22.10;99.90
33815;DHT22;20121;51.910;8.406;2022-07-23T09:54:05;21.90;99.90
33815;DHT22;20121;51.910;8.406;2022-07-23T09:56:31;22.00;99.90
33815;DHT22;20121;51.910;8.406;2022-07-23T09:58:59;22.30;99.80
33815;DHT22;20121;51.910;8.406;2022-07-23T10:01:52;22.50;99.90
33815;DHT22;20121;51.910;8.406;2022-07-23T10:04:21;23.20;98.40
33815;DHT22;20121;51.910;8.406;2022-07-23T10:06:52;23.10;98.80
33815;DHT22;20121;51.910;8.406;2022-07-23T10:09:22;23.10;96.80
33815;DHT22;20121;51.910;8.406;2022-07-23T10:11:49;22.60;97.70
33815;DHT22;20121;51.910;8.406;2022-07-23T10:14:15;22.60;99.00
33815;DHT22;20121;51.910;8.406;2022-07-23T10:16:41;22.50;98.80
33815;DHT22;20121;51.910;8.406;2022-07-23T10:19:07;23.00;98.10
33815;DHT22;20121;51.910;8.406;2022-07-23T10:21:38;23.20;98.20
33815;DHT22;20121;51.910;8.406;2022-07-23T10:30:00;24.80;96.70
33815;DHT22;20121;51.910;8.406;2022-07-23T10:32:49;25.10;95.60
33815;DHT22;20121;51.910;8.406;2022-07-23T10:35:29;25.10;96.00
33815;DHT22;20121;51.910;8.406;2022-07-23T10:38:11;25.00;95.20
33815;DHT22;20121;51.910;8.406;2022-07-23T10:40:57;24.70;95.40
33815;DHT22;20121;51.910;8.406;2022-07-23T10:43:23;24.00;94.60
33815;DHT22;20121;51.910;8.406;2022-07-23T10:45:49;24.20;96.20
33815;DHT22;20121;51.910;8.406;2022-07-23T10:48:24;24.00;96.30
33815;DHT22;20121;51.910;8.406;2022-07-23T10:51:09;24.40;95.60
33815;DHT22;20121;51.910;8.406;2022-07-23T10:59:03;23.70;95.70
33815;DHT22;20121;51.910;8.406;2022-07-23T11:01:37;23.70;96.10
33815;DHT22;20121;51.910;8.406;2022-07-23T11:04:04;23.20;99.90
33815;DHT22;20121;51.910;8.406;2022-07-23T11:09:32;22.70;96.50
33815;DHT22;20121;51.910;8.406;2022-07-23T11:15:14;23.00;97.80
33815;DHT22;20121;51.910;8.406;2022-07-23T11:20:32;24.20;96.60
33815;DHT22;20121;51.910;8.406;2022-07-23T11:22:58;24.70;95.90
33815;DHT22;20121;51.910;8.406;2022-07-23T11:25:28;25.10;95.00
33815;DHT22;20121;51.910;8.406;2022-07-23T11:27:55;25.30;95.20
33815;DHT22;20121;51.910;8.406;2022-07-23T11:35:37;25.90;93.80
33815;DHT22;20121;51.910;8.406;2022-07-23T11:38:19;25.90;92.20
33815;DHT22;20121;51.910;8.406;2022-07-23T11:40:49;25.90;92.90
33815;DHT22;20121;51.910;8.406;2022-07-23T11:43:16;26.10;93.10
33815;DHT22;20121;51.910;8.406;2022-07-23T11:45:44;26.30;92.20
33815;DHT22;20121;51.910;8.406;2022-07-23T11:50:43;26.40;92.80
33815;DHT22;20121;51.910;8.406;2022-07-23T11:53:09;26.50;92.00
33815;DHT22;20121;51.910;8.406;2022-07-23T11:55:35;26.70;91.80
33815;DHT22;20121;51.910;8.406;2022-07-23T11:58:00;26.50;91.70
33815;DHT22;20121;51.910;8.406;2022-07-23T12:00:29;26.10;92.30
33815;DHT22;20121;51.910;8.406;2022-07-23T12:03:01;26.20;92.60
33815;DHT22;20121;51.910;8.406;2022-07-23T12:05:32;26.20;92.30
33815;DHT22;20121;51.910;8.406;2022-07-23T12:08:00;26.40;92.20
33815;DHT22;20121;51.910;8.406;2022-07-23T12:10:28;26.60;93.30
33815;DHT22;20121;51.910;8.406;2022-07-23T12:12:58;26.90;92.50
33815;DHT22;20121;51.910;8.406;2022-07-23T12:15:36;26.90;91.60
33815;DHT22;20121;51.910;8.406;2022-07-23T12:18:07;26.70;90.70
33815;DHT22;20121;51.910;8.406;2022-07-23T12:20:36;26.40;91.00
33815;DHT22;20121;51.910;8.406;2022-07-23T12:23:06;26.30;91.10
33815;DHT22;20121;51.910;8.406;2022-07-23T12:25:43;26.10;89.90
33815;DHT22;20121;51.910;8.406;2022-07-23T12:28:10;26.30;91.60
33815;DHT22;20121;51.910;8.406;2022-07-23T12:30:50;26.50;91.20
33815;DHT22;20121;51.910;8.406;2022-07-23T12:35:49;26.30;90.00
33815;DHT22;20121;51.910;8.406;2022-07-23T12:38:18;25.80;90.80
33815;DHT22;20121;51.910;8.406;2022-07-23T12:40:49;25.90;90.80
33815;DHT22;20121;51.910;8.406;2022-07-23T12:43:25;26.20;90.40
33815;DHT22;20121;51.910;8.406;2022-07-23T12:48:28;26.60;92.60
33815;DHT22;20121;51.910;8.406;2022-07-23T12:53:48;26.90;88.60
33815;DHT22;20121;51.910;8.406;2022-07-23T12:56:26;26.90;89.20
33815;DHT22;20121;51.910;8.406;2022-07-23T12:59:06;26.50;90.30
33815;DHT22;20121;51.910;8.406;2022-07-23T13:01:36;26.60;91.40
33815;DHT22;20121;51.910;8.406;2022-07-23T13:07:00;26.60;90.40
33815;DHT22;20121;51.910;8.406;2022-07-23T13:09:32;27.00;89.90
33815;DHT22;20121;51.910;8.406;2022-07-23T13:11:59;27.00;88.90
33815;DHT22;20121;51.910;8.406;2022-07-23T13:14:26;26.70;88.60
33815;DHT22;20121;51.910;8.406;2022-07-23T13:16:52;26.70;88.30
33815;DHT22;20121;51.910;8.406;2022-07-23T13:19:19;26.70;86.10
33815;DHT22;20121;51.910;8.406;2022-07-23T13:21:45;26.70;89.60
33815;DHT22;20121;51.910;8.406;2022-07-23T13:24:12;26.70;90.10
33815;DHT22;20121;51.910;8.406;2022-07-23T13:26:38;26.40;87.90
33815;DHT22;20121;51.910;8.406;2022-07-23T13:29:04;26.70;87.40
33815;DHT22;20121;51.910;8.406;2022-07-23T13:31:30;26.80;87.20
33815;DHT22;20121;51.910;8.406;2022-07-23T13:33:56;26.90;89.10
33815;DHT22;20121;51.910;8.406;2022-07-23T13:36:21;27.20;88.80
33815;DHT22;20121;51.910;8.406;2022-07-23T13:38:47;27.30;89.80
33815;DHT22;20121;51.910;8.406;2022-07-23T13:41:13;27.30;88.50
33815;DHT22;20121;51.910;8.406;2022-07-23T13:43:41;27.30;87.90
33815;DHT22;20121;51.910;8.406;2022-07-23T13:46:07;27.10;87.80
33815;DHT22;20121;51.910;8.406;2022-07-23T13:48:33;27.20;85.80
33815;DHT22;20121;51.910;8.406;2022-07-23T13:50:58;27.20;86.80
33815;DHT22;20121;51.910;8.406;2022-07-23T13:53:24;26.90;86.80
33815;DHT22;20121;51.910;8.406;2022-07-23T13:55:51;26.90;86.30
33815;DHT22;20121;51.910;8.406;2022-07-23T13:58:17;26.00;88.80
33815;DHT22;20121;51.910;8.406;2022-07-23T14:00:47;25.80;86.90
33815;DHT22;20121;51.910;8.406;2022-07-23T14:03:13;26.00;90.40
33815;DHT22;20121;51.910;8.406;2022-07-23T14:05:39;26.20;90.40
33815;DHT22;20121;51.910;8.406;2022-07-23T14:08:06;26.20;87.70
33815;DHT22;20121;51.910;8.406;2022-07-23T14:10:32;26.20;88.90
33815;DHT22;20121;51.910;8.406;2022-07-23T14:12:58;26.20;88.50
33815;DHT22;20121;51.910;8.406;2022-07-23T14:15:26;26.20;87.50
33815;DHT22;20121;51.910;8.406;2022-07-23T14:17:54;26.10;87.80
33815;DHT22;20121;51.910;8.406;2022-07-23T14:20:21;25.60;86.30
33815;DHT22;20121;51.910;8.406;2022-07-23T14:22:47;25.70;87.90
33815;DHT22;20121;51.910;8.406;2022-07-23T14:25:13;25.30;87.90
33815;DHT22;20121;51.910;8.406;2022-07-23T14:27:39;25.40;89.30
33815;DHT22;20121;51.910;8.406;2022-07-23T14:30:09;25.50;89.50
33815;DHT22;20121;51.910;8.406;2022-07-23T14:32:35;25.50;89.20
33815;DHT22;20121;51.910;8.406;2022-07-23T14:35:01;25.60;90.20
33815;DHT22;20121;51.910;8.406;2022-07-23T14:37:27;25.80;90.30
33815;DHT22;20121;51.910;8.406;2022-07-23T14:39:53;25.80;87.40
33815;DHT22;20121;51.910;8.406;2022-07-23T14:42:19;25.60;87.20
33815;DHT22;20121;51.910;8.406;2022-07-23T14:44:45;25.60;88.70
33815;DHT22;20121;51.910;8.406;2022-07-23T14:47:10;25.70;86.50
33815;DHT22;20121;51.910;8.406;2022-07-23T14:49:36;25.60;88.80
33815;DHT22;20121;51.910;8.406;2022-07-23T14:52:03;25.60;88.20
33815;DHT22;20121;51.910;8.406;2022-07-23T14:54:29;25.50;88.40
33815;DHT22;20121;51.910;8.406;2022-07-23T14:56:56;25.50;88.70
33815;DHT22;20121;51.910;8.406;2022-07-23T14:59:22;25.50;90.40
33815;DHT22;20121;51.910;8.406;2022-07-23T15:01:48;25.60;90.30
33815;DHT22;20121;51.910;8.406;2022-07-23T15:04:14;25.50;88.80
33815;DHT22;20121;51.910;8.406;2022-07-23T15:06:40;25.30;87.30
33815;DHT22;20121;51.910;8.406;2022-07-23T15:09:06;25.40;89.30
33815;DHT22;20121;51.910;8.406;2022-07-23T15:11:32;25.50;90.00
33815;DHT22;20121;51.910;8.406;2022-07-23T15:14:04;25.40;89.70
33815;DHT22;20121;51.910;8.406;2022-07-23T15:16:30;25.40;89.10
33815;DHT22;20121;51.910;8.406;2022-07-23T15:18:56;25.10;89.10
33815;DHT22;20121;51.910;8.406;2022-07-23T15:21:21;25.10;89.10
33815;DHT22;20121;51.910;8.406;2022-07-23T15:23:47;25.20;90.30
33815;DHT22;20121;51.910;8.406;2022-07-23T15:26:13;25.20;91.10
33815;DHT22;20121;51.910;8.406;2022-07-23T15:28:40;25.00;90.00
33815;DHT22;20121;51.910;8.406;2022-07-23T15:31:06;24.90;89.20
33815;DHT22;20121;51.910;8.406;2022-07-23T15:33:32;24.80;88.70
33815;DHT22;20121;51.910;8.406;2022-07-23T15:35:58;24.40;89.10
33815;DHT22;20121;51.910;8.406;2022-07-23T15:38:26;24.50;91.20
33815;DHT22;20121;51.910;8.406;2022-07-23T15:40:55;24.50;90.00
33815;DHT22;20121;51.910;8.406;2022-07-23T15:43:24;24.50;89.40
33815;DHT22;20121;51.910;8.406;2022-07-23T15:45:51;24.50;90.30
33815;DHT22;20121;51.910;8.406;2022-07-23T15:48:18;24.60;92.20
33815;DHT22;20121;51.910;8.406;2022-07-23T15:50:44;24.40;90.90
33815;DHT22;20121;51.910;8.406;2022-07-23T15:53:10;24.50;91.30
33815;DHT22;20121;51.910;8.406;2022-07-23T15:55:36;24.40;89.90
33815;DHT22;20121;51.910;8.406;2022-07-23T15:58:04;24.40;90.00
33815;DHT22;20121;51.910;8.406;2022-07-23T16:00:29;23.80;91.10
33815;DHT22;20121;51.910;8.406;2022-07-23T16:02:55;24.30;90.60
33815;DHT22;20121;51.910;8.406;2022-07-23T16:05:21;24.10;90.40
33815;DHT22;20121;51.910;8.406;2022-07-23T16:07:46;24.10;90.90
33815;DHT22;20121;51.910;8.406;2022-07-23T16:10:12;24.20;90.10
33815;DHT22;20121;51.910;8.406;2022-07-23T16:12:38;24.20;90.60
33815;DHT22;20121;51.910;8.406;2022-07-23T16:15:04;24.00;90.20
33815;DHT22;20121;51.910;8.406;2022-07-23T16:17:30;23.90;90.50
33815;DHT22;20121;51.910;8.406;2022-07-23T16:19:55;24.50;92.10